createdAt,value
2023-05-05T00:01:37.456Z,101447.67
2023-05-05T00:04:04.654Z,101444.84
2023-05-05T00:06:31.611Z,101442.02
2023-05-05T00:08:58.499Z,101442.48
2023-05-05T00:11:26.150Z,101441.40
2023-05-05T00:13:53.118Z,101439.21
2023-05-05T00:16:20.090Z,101442.96
2023-05-05T00:18:47.447Z,101443.11
2023-05-05T00:21:14.359Z,101439.52
2023-05-05T00:23:41.465Z,101432.96
2023-05-05T00:26:08.235Z,101434.18
2023-05-05T00:28:35.084Z,101431.89
2023-05-05T00:31:01.978Z,101431.42
2023-05-05T00:33:28.902Z,101438.70
2023-05-05T00:35:55.580Z,101437.55
2023-05-05T00:38:22.243Z,101437.23
2023-05-05T00:40:48.890Z,101437.38
2023-05-05T00:43:15.499Z,101433.49
2023-05-05T00:45:44.674Z,101437.88
2023-05-05T00:48:11.653Z,101434.66
2023-05-05T00:50:38.795Z,101437.20
2023-05-05T00:53:06.915Z,101429.93
2023-05-05T00:55:35.055Z,101429.79
2023-05-05T00:58:03.327Z,101427.14
2023-05-05T01:00:31.534Z,101427.86
2023-05-05T01:02:59.715Z,101427.45
2023-05-05T01:05:38.003Z,101424.81
2023-05-05T01:08:29.305Z,101423.12
2023-05-05T01:11:03.220Z,101417.58
2023-05-05T01:13:53.961Z,101411.70
2023-05-05T01:16:25.851Z,101411.44
2023-05-05T01:19:08.027Z,101413.46
2023-05-05T01:22:19.000Z,101412.65
2023-05-05T01:25:23.096Z,101408.42
2023-05-05T01:28:23.644Z,101403.30
2023-05-05T01:31:03.504Z,101401.00
2023-05-05T01:33:36.953Z,101404.75
2023-05-05T01:36:12.034Z,101403.91
2023-05-05T01:38:42.339Z,101402.30
2023-05-05T01:41:18.373Z,101400.73
2023-05-05T01:43:50.310Z,101400.95
2023-05-05T01:46:19.680Z,101401.66
2023-05-05T01:48:48.324Z,101398.05
2023-05-05T01:51:17.866Z,101396.33
2023-05-05T01:53:47.359Z,101397.58
2023-05-05T01:56:15.943Z,101388.86
2023-05-05T01:58:45.390Z,101389.85
2023-05-05T02:01:13.829Z,101389.21
2023-05-05T02:03:42.115Z,101387.60
2023-05-05T02:06:11.709Z,101387.14
2023-05-05T02:08:41.007Z,101387.27
2023-05-05T02:11:10.654Z,101386.38
2023-05-05T02:13:39.356Z,101389.45
2023-05-05T02:16:07.107Z,101388.70
2023-05-05T02:18:36.269Z,101393.93
2023-05-05T02:21:03.961Z,101392.86
2023-05-05T02:23:31.026Z,101388.52
2023-05-05T02:26:04.826Z,101387.30
2023-05-05T02:29:03.360Z,101387.11
2023-05-05T02:31:32.729Z,101385.10
2023-05-05T02:34:01.947Z,101381.48
2023-05-05T02:36:37.797Z,101380.27
2023-05-05T02:39:12.732Z,101380.77
2023-05-05T02:41:43.055Z,101379.37
2023-05-05T02:44:19.868Z,101381.63
2023-05-05T02:46:47.391Z,101377.69
2023-05-05T02:49:15.591Z,101375.76
2023-05-05T02:51:42.933Z,101379.27
2023-05-05T02:54:18.181Z,101375.80
2023-05-05T02:56:51.048Z,101376.92
2023-05-05T02:59:34.296Z,101371.56
2023-05-05T03:02:11.601Z,101373.39
2023-05-05T03:04:39.696Z,101371.34
2023-05-05T03:07:12.376Z,101370.45
2023-05-05T03:10:06.431Z,101368.12
2023-05-05T03:12:56.807Z,101369.45
2023-05-05T03:15:32.658Z,101367.29
2023-05-05T03:18:02.028Z,101366.75
2023-05-05T03:20:30.496Z,101367.80
2023-05-05T03:22:57.849Z,101362.94
2023-05-05T03:25:43.720Z,101362.06
2023-05-05T03:28:11.630Z,101361.31
2023-05-05T03:30:38.603Z,101361.45
2023-05-05T03:33:05.661Z,101363.52
2023-05-05T03:35:32.877Z,101362.67
2023-05-05T03:37:59.633Z,101362.24
2023-05-05T03:40:36.220Z,101366.54
2023-05-05T03:43:08.772Z,101361.61
2023-05-05T03:45:37.732Z,101364.40
2023-05-05T03:48:05.050Z,101363.63
2023-05-05T03:50:32.803Z,101360.77
2023-05-05T03:52:59.600Z,101358.67
2023-05-05T03:55:26.811Z,101359.11
2023-05-05T03:57:53.804Z,101360.83
2023-05-05T04:00:20.622Z,101360.11
2023-05-05T04:02:47.915Z,101358.70
2023-05-05T04:05:14.785Z,101356.44
2023-05-05T04:07:41.833Z,101358.00
2023-05-05T04:10:09.951Z,101356.52
2023-05-05T04:12:36.789Z,101358.50
2023-05-05T04:15:03.807Z,101359.48
2023-05-05T04:17:31.554Z,101357.95
2023-05-05T04:19:58.877Z,101362.20
2023-05-05T04:22:25.820Z,101357.73
2023-05-05T04:24:52.734Z,101357.77
2023-05-05T04:27:19.843Z,101359.50
2023-05-05T04:29:47.655Z,101357.36
2023-05-05T04:32:14.445Z,101360.40
2023-05-05T04:34:41.828Z,101360.69
2023-05-05T04:37:08.649Z,101360.58
2023-05-05T04:39:35.491Z,101360.31
2023-05-05T04:42:04.937Z,101361.33
2023-05-05T04:44:31.906Z,101364.78
2023-05-05T04:47:00.809Z,101365.28
2023-05-05T04:49:32.918Z,101363.45
2023-05-05T04:51:59.913Z,101364.01
2023-05-05T04:54:27.903Z,101365.98
2023-05-05T04:56:54.641Z,101365.70
2023-05-05T04:59:21.401Z,101368.63
2023-05-05T05:01:48.950Z,101367.02
2023-05-05T05:04:18.674Z,101367.52
2023-05-05T05:06:46.870Z,101368.95
2023-05-05T05:09:13.729Z,101369.29
2023-05-05T05:11:40.444Z,101369.85
2023-05-05T05:14:07.883Z,101369.63
2023-05-05T05:16:34.902Z,101368.83
2023-05-05T05:19:02.088Z,101370.25
2023-05-05T05:21:29.966Z,101371.66
2023-05-05T05:23:56.947Z,101377.03
2023-05-05T05:26:24.384Z,101375.60
2023-05-05T05:28:51.948Z,101378.90
2023-05-05T05:31:19.980Z,101376.30
2023-05-05T05:33:46.958Z,101376.70
2023-05-05T05:36:13.945Z,101377.65
2023-05-05T05:38:40.929Z,101381.95
2023-05-05T05:41:07.987Z,101383.23
2023-05-05T05:43:35.267Z,101384.55
2023-05-05T05:46:04.009Z,101384.13
2023-05-05T05:48:31.119Z,101382.34
2023-05-05T05:50:58.299Z,101381.88
2023-05-05T05:53:25.953Z,101380.70
2023-05-05T05:55:53.954Z,101378.29
2023-05-05T05:58:20.959Z,101381.74
2023-05-05T06:00:49.054Z,101383.83
2023-05-05T06:03:15.949Z,101382.19
2023-05-05T06:05:44.940Z,101378.32
2023-05-05T06:08:12.998Z,101381.72
2023-05-05T06:10:43.984Z,101383.18
2023-05-05T06:13:15.150Z,101383.69
2023-05-05T06:15:45.049Z,101387.96
2023-05-05T06:18:12.643Z,101387.43
2023-05-05T06:20:39.980Z,101390.38
2023-05-05T06:23:07.180Z,101387.12
2023-05-05T06:25:37.016Z,101387.96
2023-05-05T06:28:05.675Z,101386.92
2023-05-05T06:30:33.034Z,101386.14
2023-05-05T06:33:00.054Z,101386.85
2023-05-05T06:35:26.885Z,101388.12
2023-05-05T06:37:53.988Z,101387.14
2023-05-05T06:40:22.048Z,101387.55
2023-05-05T06:42:49.024Z,101390.16
2023-05-05T06:45:20.493Z,101390.67
2023-05-05T06:47:47.237Z,101386.04
2023-05-05T06:50:14.061Z,101386.35
2023-05-05T06:52:41.356Z,101386.85
2023-05-05T06:55:09.120Z,101385.75
2023-05-05T06:57:36.580Z,101388.63
2023-05-05T07:00:06.158Z,101393.32
2023-05-05T07:02:33.802Z,101391.86
2023-05-05T07:05:01.094Z,101396.52
2023-05-05T07:07:27.792Z,101393.08
2023-05-05T07:09:54.477Z,101392.77
2023-05-05T07:12:22.072Z,101392.56
2023-05-05T07:14:49.140Z,101392.69
2023-05-05T07:17:16.100Z,101387.55
2023-05-05T07:19:43.230Z,101388.66
2023-05-05T07:22:10.077Z,101387.80
2023-05-05T07:24:36.868Z,101392.21
2023-05-05T07:27:03.552Z,101388.98
2023-05-05T07:29:32.131Z,101390.50
2023-05-05T07:31:58.807Z,101385.92
2023-05-05T07:34:26.151Z,101387.40
2023-05-05T07:36:52.833Z,101382.49
2023-05-05T07:39:22.080Z,101388.52
2023-05-05T07:41:48.712Z,101386.55
2023-05-05T07:44:16.123Z,101385.70
2023-05-05T07:46:44.766Z,101388.67
2023-05-05T07:49:12.177Z,101386.59
2023-05-05T07:51:39.209Z,101384.16
2023-05-05T07:54:06.132Z,101379.23
2023-05-05T07:56:33.148Z,101376.38
2023-05-05T07:58:59.950Z,101375.27
2023-05-05T08:01:27.677Z,101371.44
2023-05-05T08:03:55.159Z,101376.27
2023-05-05T08:06:23.169Z,101374.67
2023-05-05T08:08:50.143Z,101375.05
2023-05-05T08:11:17.462Z,101373.40
2023-05-05T08:13:44.309Z,101373.95
2023-05-05T08:16:12.199Z,101372.16
2023-05-05T08:18:39.320Z,101370.60
2023-05-05T08:21:08.203Z,101372.94
2023-05-05T08:23:36.163Z,101374.52
2023-05-05T08:26:07.133Z,101374.55
2023-05-05T08:28:36.931Z,101370.59
2023-05-05T08:31:04.512Z,101369.05
2023-05-05T08:33:32.254Z,101371.95
2023-05-05T08:35:59.184Z,101369.52
2023-05-05T08:38:25.946Z,101369.55
2023-05-05T08:40:53.517Z,101369.42
2023-05-05T08:43:23.207Z,101368.59
2023-05-05T08:45:53.431Z,101371.55
2023-05-05T08:48:21.778Z,101365.88
2023-05-05T08:50:55.906Z,101365.52
2023-05-05T08:53:33.149Z,101362.46
2023-05-05T08:56:01.111Z,101365.26
2023-05-05T08:58:29.038Z,101359.27
2023-05-05T09:00:56.904Z,101368.89
2023-05-05T09:03:24.189Z,101369.34
2023-05-05T09:05:51.243Z,101370.72
2023-05-05T09:08:17.948Z,101369.10
2023-05-05T09:10:44.882Z,101367.48
2023-05-05T09:13:19.047Z,101362.44
2023-05-05T09:15:45.932Z,101362.98
2023-05-05T09:18:13.178Z,101363.98
2023-05-05T09:20:41.066Z,101363.82
2023-05-05T09:23:13.515Z,101362.52
2023-05-05T09:25:41.882Z,101358.91
2023-05-05T09:28:10.822Z,101361.70
2023-05-05T09:30:39.005Z,101355.94
2023-05-05T09:33:06.301Z,101349.66
2023-05-05T09:35:49.966Z,101353.33
2023-05-05T09:38:17.654Z,101347.75
2023-05-05T09:40:49.538Z,101349.14
2023-05-05T09:43:17.595Z,101346.28
2023-05-05T09:45:44.647Z,101341.14
2023-05-05T09:48:29.452Z,101340.42
2023-05-05T09:50:57.566Z,101333.48
2023-05-05T09:53:25.542Z,101332.37
2023-05-05T09:55:56.827Z,101335.33
2023-05-05T09:58:26.060Z,101333.30
2023-05-05T10:00:54.066Z,101327.77
2023-05-05T10:03:21.041Z,101325.86
2023-05-05T10:05:48.070Z,101325.61
2023-05-05T10:08:14.802Z,101328.00
2023-05-05T10:10:50.319Z,101323.90
2023-05-05T10:13:19.286Z,101325.33
2023-05-05T10:15:47.186Z,101321.73
2023-05-05T10:18:22.732Z,101316.41
2023-05-05T10:20:57.350Z,101315.04
2023-05-05T10:23:28.310Z,101314.29
2023-05-05T10:26:02.648Z,101311.77
2023-05-05T10:28:35.009Z,101308.35
2023-05-05T10:31:12.893Z,101306.51
2023-05-05T10:34:03.905Z,101310.55
2023-05-05T10:36:32.515Z,101306.02
2023-05-05T10:39:00.192Z,101298.72
2023-05-05T10:41:27.206Z,101302.44
2023-05-05T10:43:57.427Z,101296.77
2023-05-05T10:46:26.959Z,101294.36
2023-05-05T10:49:02.960Z,101290.02
2023-05-05T10:51:44.334Z,101285.04
2023-05-05T10:54:30.268Z,101280.68
2023-05-05T10:57:02.611Z,101276.67
2023-05-05T10:59:38.467Z,101277.79
2023-05-05T11:02:23.946Z,101275.23
2023-05-05T11:05:15.364Z,101270.33
2023-05-05T11:07:44.092Z,101266.09
2023-05-05T11:10:13.312Z,101262.90
2023-05-05T11:12:52.161Z,101262.29
2023-05-05T11:15:31.230Z,101258.18
2023-05-05T11:17:59.801Z,101251.59
2023-05-05T11:20:36.142Z,101249.42
2023-05-05T11:23:02.832Z,101245.48
2023-05-05T11:25:35.896Z,101242.91
2023-05-05T11:28:06.921Z,101242.21
2023-05-05T11:30:33.969Z,101235.08
2023-05-05T11:33:23.885Z,101230.98
2023-05-05T11:36:01.320Z,101226.48
2023-05-05T11:39:10.825Z,101225.29
2023-05-05T11:42:10.991Z,101224.19
2023-05-05T11:44:37.992Z,101219.23
2023-05-05T11:47:04.848Z,101217.52
2023-05-05T11:49:32.439Z,101218.27
2023-05-05T11:52:04.636Z,101216.57
2023-05-05T11:54:32.114Z,101211.89
2023-05-05T11:57:02.382Z,101213.67
2023-05-05T11:59:30.165Z,101207.98
2023-05-05T12:01:56.974Z,101212.14
2023-05-05T12:04:24.135Z,101207.92
2023-05-05T12:06:51.188Z,101206.89
2023-05-05T12:09:20.267Z,101202.12
2023-05-05T12:11:57.001Z,101200.27
2023-05-05T12:14:25.590Z,101196.67
2023-05-05T12:17:04.449Z,101199.14
2023-05-05T12:19:33.617Z,101194.85
2023-05-05T12:22:04.972Z,101189.84
2023-05-05T12:24:31.813Z,101188.89
2023-05-05T12:27:08.767Z,101183.67
2023-05-05T12:29:35.516Z,101182.13
2023-05-05T12:32:02.346Z,101178.83
2023-05-05T12:34:29.377Z,101178.06
2023-05-05T12:36:56.073Z,101178.65
2023-05-05T12:39:22.771Z,101173.84
2023-05-05T12:41:49.810Z,101177.43
2023-05-05T12:44:17.889Z,101165.12
2023-05-05T12:46:48.728Z,101167.11
2023-05-05T12:49:17.628Z,101162.38
2023-05-05T12:51:55.415Z,101160.43
2023-05-05T12:54:25.254Z,101155.83
2023-05-05T12:56:51.944Z,101150.01
2023-05-05T12:59:21.397Z,101147.73
2023-05-05T13:02:01.693Z,101149.83
2023-05-05T13:04:28.710Z,101146.86
2023-05-05T13:07:15.212Z,101145.45
2023-05-05T13:09:42.569Z,101140.50
2023-05-05T13:12:12.303Z,101137.60
2023-05-05T13:14:39.995Z,101136.56
2023-05-05T13:17:07.105Z,101131.63
2023-05-05T13:19:35.911Z,101129.52
2023-05-05T13:22:02.556Z,101125.10
2023-05-05T13:24:42.796Z,101121.88
2023-05-05T13:27:13.836Z,101115.96
2023-05-05T13:29:41.752Z,101115.73
2023-05-05T13:32:08.435Z,101116.40
2023-05-05T13:34:35.462Z,101108.23
2023-05-05T13:37:02.104Z,101106.65
2023-05-05T13:39:28.691Z,101109.26
2023-05-05T13:41:55.624Z,101112.60
2023-05-05T13:44:22.344Z,101109.57
2023-05-05T13:46:49.183Z,101108.73
2023-05-05T13:49:15.923Z,101103.50
2023-05-05T13:51:42.705Z,101102.63
2023-05-05T13:54:09.911Z,101098.67
2023-05-05T13:56:37.197Z,101097.13
2023-05-05T13:59:04.005Z,101092.35
2023-05-05T14:01:30.907Z,101088.71
2023-05-05T14:03:58.487Z,101085.83
2023-05-05T14:06:26.215Z,101081.76
2023-05-05T14:08:53.255Z,101081.14
2023-05-05T14:11:20.831Z,101078.68
2023-05-05T14:13:48.183Z,101075.21
2023-05-05T14:16:15.068Z,101076.11
2023-05-05T14:18:41.875Z,101072.91
2023-05-05T14:21:08.590Z,101071.14
2023-05-05T14:23:35.616Z,101071.92
2023-05-05T14:26:02.926Z,101070.48
2023-05-05T14:28:29.658Z,101073.38
2023-05-05T14:30:56.567Z,101072.02
2023-05-05T14:33:23.248Z,101068.77
2023-05-05T14:35:49.913Z,101064.66
2023-05-05T14:38:16.570Z,101064.87
2023-05-05T14:40:43.326Z,101062.67
2023-05-05T14:43:12.544Z,101057.78
2023-05-05T14:45:39.428Z,101055.39
2023-05-05T14:48:06.135Z,101056.99
2023-05-05T14:50:32.827Z,101056.23
2023-05-05T14:52:59.521Z,101053.52
2023-05-05T14:55:26.554Z,101055.14
2023-05-05T14:57:53.189Z,101053.94
2023-05-05T15:00:19.952Z,101053.23
2023-05-05T15:02:48.403Z,101055.39
2023-05-05T15:05:15.607Z,101052.11
2023-05-05T15:07:42.404Z,101059.13
2023-05-05T15:10:09.623Z,101056.86
2023-05-05T15:12:36.446Z,101053.14
2023-05-05T15:15:03.374Z,101054.56
2023-05-05T15:17:31.731Z,101056.82
2023-05-05T15:19:58.584Z,101054.19
2023-05-05T15:22:25.263Z,101052.60
2023-05-05T15:24:51.855Z,101046.70
2023-05-05T15:27:18.654Z,101044.67
2023-05-05T15:29:45.294Z,101041.03
2023-05-05T15:32:12.121Z,101042.63
2023-05-05T15:34:38.872Z,101039.16
2023-05-05T15:37:05.523Z,101038.55
2023-05-05T15:39:32.183Z,101037.71
2023-05-05T15:42:03.793Z,101036.60
2023-05-05T15:44:31.818Z,101031.09
2023-05-05T15:46:58.787Z,101029.19
2023-05-05T15:49:27.572Z,101028.27
2023-05-05T15:51:54.555Z,101029.23
2023-05-05T15:54:21.333Z,101029.64
2023-05-05T15:56:47.903Z,101024.91
2023-05-05T15:59:14.597Z,101023.18
2023-05-05T16:01:41.783Z,101022.09
2023-05-05T16:04:08.509Z,101016.88
2023-05-05T16:06:35.281Z,101017.45
2023-05-05T16:09:01.890Z,101019.52
2023-05-05T16:11:28.588Z,101013.98
2023-05-05T16:13:55.422Z,101010.05
2023-05-05T16:16:22.163Z,101007.96
2023-05-05T16:18:48.924Z,101006.52
2023-05-05T16:21:15.755Z,101009.30
2023-05-05T16:23:42.500Z,101009.25
2023-05-05T16:26:09.157Z,101010.42
2023-05-05T16:28:36.051Z,101009.52
2023-05-05T16:31:02.663Z,101010.81
2023-05-05T16:33:29.746Z,101008.56
2023-05-05T16:35:56.600Z,101011.27
2023-05-05T16:38:23.296Z,101006.30
2023-05-05T16:40:49.902Z,101006.40
2023-05-05T16:43:16.597Z,101003.55
2023-05-05T16:45:43.648Z,101002.25
2023-05-05T16:48:10.536Z,100998.98
2023-05-05T16:50:37.192Z,100995.11
2023-05-05T16:53:03.812Z,100994.67
2023-05-05T16:55:30.575Z,100994.98
2023-05-05T16:57:57.167Z,100993.66
2023-05-05T17:00:23.882Z,100986.35
2023-05-05T17:02:50.598Z,100985.30
2023-05-05T17:05:17.770Z,100984.50
2023-05-05T17:07:44.835Z,100982.67
2023-05-05T17:10:11.552Z,100984.14
2023-05-05T17:12:38.317Z,100984.32
2023-05-05T17:15:05.948Z,100985.57
2023-05-05T17:17:32.564Z,100986.25
2023-05-05T17:19:59.456Z,100980.75
2023-05-05T17:22:26.443Z,100980.38
2023-05-05T17:24:53.142Z,100978.01
2023-05-05T17:27:19.746Z,100979.02
2023-05-05T17:29:46.418Z,100976.84
2023-05-05T17:32:13.087Z,100980.45
2023-05-05T17:34:41.154Z,100980.89
2023-05-05T17:37:09.164Z,100983.50
2023-05-05T17:39:35.829Z,100982.34
2023-05-05T17:42:02.563Z,100988.33
2023-05-05T17:44:29.296Z,100988.16
2023-05-05T17:46:55.941Z,100993.55
2023-05-05T17:49:25.338Z,100995.48
2023-05-05T17:51:52.117Z,100998.26
2023-05-05T17:54:18.791Z,100996.15
2023-05-05T17:56:45.412Z,100995.06
2023-05-05T17:59:12.045Z,100995.60
2023-05-05T18:01:38.718Z,101001.18
2023-05-05T18:04:05.583Z,101003.08
2023-05-05T18:06:32.297Z,101004.98
2023-05-05T18:08:58.964Z,101006.95
2023-05-05T18:11:28.006Z,101010.89
2023-05-05T18:13:55.997Z,101012.95
2023-05-05T18:16:22.748Z,101015.20
2023-05-05T18:18:49.479Z,101014.27
2023-05-05T18:21:16.147Z,101015.48
2023-05-05T18:23:42.943Z,101015.27
2023-05-05T18:26:09.674Z,101020.59
2023-05-05T18:28:36.905Z,101017.77
2023-05-05T18:31:03.576Z,101019.32
2023-05-05T18:33:30.224Z,101014.65
2023-05-05T18:35:57.814Z,101017.11
2023-05-05T18:38:24.896Z,101019.61
2023-05-05T18:40:51.589Z,101025.41
2023-05-05T18:43:18.297Z,101027.55
2023-05-05T18:45:45.376Z,101025.41
2023-05-05T18:48:12.204Z,101029.25
2023-05-05T18:50:38.915Z,101030.48
2023-05-05T18:53:05.636Z,101031.83
2023-05-05T18:55:32.332Z,101034.88
2023-05-05T18:57:59.086Z,101036.36
2023-05-05T19:00:25.915Z,101037.33
2023-05-05T19:02:52.681Z,101043.91
2023-05-05T19:05:19.430Z,101042.71
2023-05-05T19:07:46.269Z,101039.29
2023-05-05T19:10:13.252Z,101040.97
2023-05-05T19:12:39.986Z,101040.62
2023-05-05T19:15:07.707Z,101039.71
2023-05-05T19:17:34.899Z,101040.80
2023-05-05T19:20:03.108Z,101041.13
2023-05-05T19:22:30.055Z,101046.86
2023-05-05T19:24:56.726Z,101046.62
2023-05-05T19:27:24.969Z,101052.88
2023-05-05T19:29:52.823Z,101048.52
2023-05-05T19:32:21.170Z,101052.60
2023-05-05T19:34:48.393Z,101056.00
2023-05-05T19:37:15.137Z,101060.84
2023-05-05T19:39:45.875Z,101060.75
2023-05-05T19:42:14.618Z,101062.27
2023-05-05T19:44:46.976Z,101061.29
2023-05-05T19:47:15.240Z,101058.19
2023-05-05T19:49:42.133Z,101056.55
2023-05-05T19:52:10.183Z,101053.52
2023-05-05T19:54:37.692Z,101053.38
2023-05-05T19:57:05.451Z,101047.41
2023-05-05T19:59:32.365Z,101049.28
2023-05-05T20:01:59.487Z,101054.44
2023-05-05T20:04:26.405Z,101054.47
2023-05-05T20:06:53.297Z,101058.33
2023-05-05T20:09:19.986Z,101057.57
2023-05-05T20:11:46.681Z,101057.70
2023-05-05T20:14:13.316Z,101058.66
2023-05-05T20:16:39.988Z,101063.13
2023-05-05T20:19:06.722Z,101064.88
2023-05-05T20:21:35.019Z,101058.94
2023-05-05T20:24:01.781Z,101060.77
2023-05-05T20:26:28.569Z,101065.05
2023-05-05T20:28:55.312Z,101066.34
2023-05-05T20:31:22.062Z,101068.12
2023-05-05T20:33:48.774Z,101071.63
2023-05-05T20:36:15.694Z,101069.17
2023-05-05T20:38:43.319Z,101065.79
2023-05-05T20:41:10.152Z,101065.40
2023-05-05T20:43:37.266Z,101068.19
2023-05-05T20:46:10.391Z,101067.60
2023-05-05T20:48:42.400Z,101072.73
2023-05-05T20:51:09.899Z,101071.69
2023-05-05T20:53:36.558Z,101069.63
2023-05-05T20:56:05.759Z,101066.85
2023-05-05T20:58:33.176Z,101068.23
2023-05-05T21:00:59.908Z,101064.06
2023-05-05T21:03:27.068Z,101066.94
2023-05-05T21:05:54.281Z,101066.27
2023-05-05T21:08:21.254Z,101065.76
2023-05-05T21:10:47.876Z,101062.64
2023-05-05T21:13:14.667Z,101065.73
2023-05-05T21:15:41.316Z,101062.69
2023-05-05T21:18:07.986Z,101061.63
2023-05-05T21:20:34.875Z,101062.79
2023-05-05T21:23:01.611Z,101063.77
2023-05-05T21:25:28.531Z,101064.50
2023-05-05T21:27:55.212Z,101065.28
2023-05-05T21:30:23.802Z,101067.27
2023-05-05T21:32:51.458Z,101069.27
2023-05-05T21:35:18.226Z,101068.77
2023-05-05T21:37:44.967Z,101070.52
2023-05-05T21:40:14.006Z,101069.10
2023-05-05T21:42:42.058Z,101067.15
2023-05-05T21:45:10.986Z,101067.18
2023-05-05T21:47:37.578Z,101066.35
2023-05-05T21:50:04.633Z,101063.81
2023-05-05T21:52:31.215Z,101066.88
2023-05-05T21:54:57.895Z,101064.73
2023-05-05T21:57:24.622Z,101065.83
2023-05-05T21:59:51.336Z,101059.98
2023-05-05T22:02:18.123Z,101056.46
2023-05-05T22:04:48.787Z,101054.05
2023-05-05T22:07:15.575Z,101054.31
2023-05-05T22:09:43.123Z,101052.15
2023-05-05T22:12:09.897Z,101053.92
2023-05-05T22:14:36.588Z,101052.32
2023-05-05T22:17:03.285Z,101052.71
2023-05-05T22:19:29.873Z,101054.50
2023-05-05T22:21:58.706Z,101052.02
2023-05-05T22:24:25.584Z,101053.66
2023-05-05T22:26:52.431Z,101048.61
2023-05-05T22:29:19.103Z,101047.40
2023-05-05T22:31:45.919Z,101051.06
2023-05-05T22:34:12.740Z,101049.94
2023-05-05T22:36:39.385Z,101048.77
2023-05-05T22:39:06.569Z,101045.20
2023-05-05T22:41:33.228Z,101046.65
2023-05-05T22:43:59.986Z,101042.20
2023-05-05T22:46:26.720Z,101045.41
2023-05-05T22:48:54.317Z,101043.84
2023-05-05T22:51:21.108Z,101045.96
2023-05-05T22:53:47.731Z,101047.41
2023-05-05T22:56:14.409Z,101045.92
2023-05-05T22:58:41.169Z,101046.77
2023-05-05T23:01:08.157Z,101047.36
2023-05-05T23:03:34.830Z,101047.40
2023-05-05T23:06:01.514Z,101044.96
2023-05-05T23:08:28.110Z,101042.80
2023-05-05T23:10:56.695Z,101037.69
2023-05-05T23:13:23.524Z,101037.96
2023-05-05T23:15:50.186Z,101039.34
2023-05-05T23:18:16.813Z,101043.61
2023-05-05T23:20:44.328Z,101045.55
2023-05-05T23:23:10.994Z,101039.31
2023-05-05T23:25:37.605Z,101041.57
2023-05-05T23:28:04.450Z,101042.12
2023-05-05T23:30:31.191Z,101038.55
2023-05-05T23:32:58.065Z,101041.21
2023-05-05T23:35:24.902Z,101038.89
2023-05-05T23:37:51.592Z,101037.90
2023-05-05T23:40:18.228Z,101034.75
2023-05-05T23:42:44.851Z,101034.35
2023-05-05T23:45:11.786Z,101031.34
2023-05-05T23:47:38.943Z,101027.99
2023-05-05T23:50:06.692Z,101022.33
2023-05-05T23:52:33.357Z,101026.86
2023-05-05T23:54:59.995Z,101024.52
2023-05-05T23:57:26.798Z,101022.19
2023-05-05T23:59:53.426Z,101017.41
